sensor_id;sensor_type;location;lat;lon;timestamp;noise_LAeq;noise_LA_min;noise_LA_max;noise_LA01;noise_LA95
57092;Laerm;42968;52.094;4.328;2023-08-08T00:00:55;40.38;35.94;51.67;;
57092;Laerm;42968;52.094;4.328;2023-08-08T00:03:21;50.89;36.91;67.78;;
57092;Laerm;42968;52.094;4.328;2023-08-08T00:05:46;40.42;35.94;49.79;;
57092;Laerm;42968;52.094;4.328;2023-08-08T00:08:11;50.64;35.66;71.08;;
57092;Laerm;42968;52.094;4.328;2023-08-08T00:10:36;54.20;36.91;70.96;;
57092;Laerm;42968;52.094;4.328;2023-08-08T00:13:02;56.90;36.45;70.99;;
57092;Laerm;42968;52.094;4.328;2023-08-08T00:15:27;57.55;35.31;77.30;;
57092;Laerm;42968;52.094;4.328;2023-08-08T00:17:52;54.64;38.18;70.78;;
57092;Laerm;42968;52.094;4.328;2023-08-08T00:20:18;49.95;36.91;66.65;;
57092;Laerm;42968;52.094;4.328;2023-08-08T00:22:43;55.19;37.52;71.39;;
57092;Laerm;42968;52.094;4.328;2023-08-08T00:25:08;41.23;36.20;64.08;;
57092;Laerm;42968;52.094;4.328;2023-08-08T00:27:34;41.10;35.94;53.36;;
57092;Laerm;42968;52.094;4.328;2023-08-08T00:30:00;52.99;38.52;72.63;;
57092;Laerm;42968;52.094;4.328;2023-08-08T00:32:25;54.33;37.52;70.79;;
57092;Laerm;42968;52.094;4.328;2023-08-08T00:34:50;55.68;36.91;70.71;;
57092;Laerm;42968;52.094;4.328;2023-08-08T00:37:15;59.54;37.32;78.65;;
57092;Laerm;42968;52.094;4.328;2023-08-08T00:39:41;54.52;36.45;71.04;;
57092;Laerm;42968;52.094;4.328;2023-08-08T00:42:11;50.35;36.69;68.36;;
57092;Laerm;42968;52.094;4.328;2023-08-08T00:44:36;61.02;36.69;78.59;;
57092;Laerm;42968;52.094;4.328;2023-08-08T00:47:02;43.04;36.45;57.51;;
57092;Laerm;42968;52.094;4.328;2023-08-08T00:49:28;50.15;37.32;66.92;;
57092;Laerm;42968;52.094;4.328;2023-08-08T00:51:53;50.97;38.05;67.65;;
57092;Laerm;42968;52.094;4.328;2023-08-08T00:54:18;52.38;36.45;68.88;;
57092;Laerm;42968;52.094;4.328;2023-08-08T00:56:44;41.05;37.12;45.99;;
57092;Laerm;42968;52.094;4.328;2023-08-08T00:59:10;41.46;37.12;54.51;;
57092;Laerm;42968;52.094;4.328;2023-08-08T01:01:36;51.60;38.21;68.65;;
57092;Laerm;42968;52.094;4.328;2023-08-08T01:04:01;55.69;37.12;70.40;;
57092;Laerm;42968;52.094;4.328;2023-08-08T01:08:57;40.07;35.36;46.05;;
57092;Laerm;42968;52.094;4.328;2023-08-08T01:11:23;40.08;35.66;46.23;;
57092;Laerm;42968;52.094;4.328;2023-08-08T01:13:49;52.65;37.53;70.90;;
57092;Laerm;42968;52.094;4.328;2023-08-08T01:16:15;51.97;38.37;68.94;;
57092;Laerm;42968;52.094;4.328;2023-08-08T01:18:42;58.93;37.70;74.51;;
57092;Laerm;42968;52.094;4.328;2023-08-08T01:21:08;50.89;36.91;69.79;;
57092;Laerm;42968;52.094;4.328;2023-08-08T01:23:41;40.83;36.20;44.73;;
57092;Laerm;42968;52.094;4.328;2023-08-08T01:26:07;40.35;36.20;44.54;;
57092;Laerm;42968;52.094;4.328;2023-08-08T01:28:33;50.70;36.20;67.62;;
57092;Laerm;42968;52.094;4.328;2023-08-08T01:30:59;48.80;35.66;64.19;;
57092;Laerm;42968;52.094;4.328;2023-08-08T01:33:24;40.87;36.69;50.00;;
57092;Laerm;42968;52.094;4.328;2023-08-08T01:35:50;48.76;37.12;64.61;;
57092;Laerm;42968;52.094;4.328;2023-08-08T01:38:23;40.84;36.91;52.51;;
57092;Laerm;42968;52.094;4.328;2023-08-08T01:40:51;47.96;36.91;63.90;;
57092;Laerm;42968;52.094;4.328;2023-08-08T01:43:17;52.33;36.91;68.81;;
57092;Laerm;42968;52.094;4.328;2023-08-08T01:45:43;49.25;36.45;65.18;;
57092;Laerm;42968;52.094;4.328;2023-08-08T01:48:09;40.62;37.52;48.70;;
57092;Laerm;42968;52.094;4.328;2023-08-08T01:50:34;43.64;35.94;61.38;;
57092;Laerm;42968;52.094;4.328;2023-08-08T01:53:00;41.60;35.94;53.45;;
57092;Laerm;42968;52.094;4.328;2023-08-08T01:55:25;50.95;38.05;66.87;;
57092;Laerm;42968;52.094;4.328;2023-08-08T01:57:50;41.65;37.12;48.66;;
57092;Laerm;42968;52.094;4.328;2023-08-08T02:00:16;53.18;36.45;71.09;;
57092;Laerm;42968;52.094;4.328;2023-08-08T02:02:41;42.32;37.12;60.48;;
57092;Laerm;42968;52.094;4.328;2023-08-08T02:05:07;42.72;37.88;63.86;;
57092;Laerm;42968;52.094;4.328;2023-08-08T02:07:32;41.51;36.45;52.14;;
57092;Laerm;42968;52.094;4.328;2023-08-08T02:09:57;55.28;36.91;70.83;;
57092;Laerm;42968;52.094;4.328;2023-08-08T02:12:22;41.36;36.69;50.86;;
57092;Laerm;42968;52.094;4.328;2023-08-08T02:14:48;40.37;36.20;49.89;;
57092;Laerm;42968;52.094;4.328;2023-08-08T02:17:13;40.47;36.20;49.75;;
57092;Laerm;42968;52.094;4.328;2023-08-08T02:19:38;41.59;37.12;54.51;;
57092;Laerm;42968;52.094;4.328;2023-08-08T02:22:04;53.20;36.69;66.54;;
57092;Laerm;42968;52.094;4.328;2023-08-08T02:24:29;40.43;36.69;48.71;;
57092;Laerm;42968;52.094;4.328;2023-08-08T02:26:54;41.33;36.69;46.82;;
57092;Laerm;42968;52.094;4.328;2023-08-08T02:29:19;61.31;39.08;80.81;;
57092;Laerm;42968;52.094;4.328;2023-08-08T02:31:45;53.66;38.21;70.97;;
57092;Laerm;42968;52.094;4.328;2023-08-08T02:34:10;56.65;37.52;72.14;;
57092;Laerm;42968;52.094;4.328;2023-08-08T02:36:35;42.97;38.95;51.97;;
57092;Laerm;42968;52.094;4.328;2023-08-08T02:39:01;52.96;35.94;76.10;;
57092;Laerm;42968;52.094;4.328;2023-08-08T02:41:26;55.79;37.88;68.55;;
57092;Laerm;42968;52.094;4.328;2023-08-08T02:43:51;49.70;36.20;67.22;;
57092;Laerm;42968;52.094;4.328;2023-08-08T02:46:16;60.33;35.94;82.78;;
57092;Laerm;42968;52.094;4.328;2023-08-08T02:48:42;55.80;37.32;70.93;;
57092;Laerm;42968;52.094;4.328;2023-08-08T02:51:07;52.11;36.91;71.75;;
57092;Laerm;42968;52.094;4.328;2023-08-08T02:53:32;41.50;37.52;49.94;;
57092;Laerm;42968;52.094;4.328;2023-08-08T02:55:57;55.05;35.94;72.27;;
57092;Laerm;42968;52.094;4.328;2023-08-08T02:58:23;60.21;39.08;75.89;;
57092;Laerm;42968;52.094;4.328;2023-08-08T03:00:48;53.96;39.70;68.94;;
57092;Laerm;42968;52.094;4.328;2023-08-08T03:03:13;55.32;39.34;68.11;;
57092;Laerm;42968;52.094;4.328;2023-08-08T03:05:39;57.09;36.69;72.77;;
57092;Laerm;42968;52.094;4.328;2023-08-08T03:08:04;54.84;36.45;72.22;;
57092;Laerm;42968;52.094;4.328;2023-08-08T03:10:30;55.89;38.81;71.41;;
57092;Laerm;42968;52.094;4.328;2023-08-08T03:12:55;57.41;39.58;75.18;;
57092;Laerm;42968;52.094;4.328;2023-08-08T03:15:20;57.61;39.08;73.27;;
57092;Laerm;42968;52.094;4.328;2023-08-08T03:17:46;57.46;38.47;74.80;;
57092;Laerm;42968;52.094;4.328;2023-08-08T03:20:11;59.25;41.30;76.03;;
57092;Laerm;42968;52.094;4.328;2023-08-08T03:22:36;55.26;41.14;72.07;;
57092;Laerm;42968;52.094;4.328;2023-08-08T03:25:02;74.64;42.35;98.16;;
57092;Laerm;42968;52.094;4.328;2023-08-08T03:27:29;57.39;40.80;72.11;;
57092;Laerm;42968;52.094;4.328;2023-08-08T03:29:54;63.29;40.53;80.64;;
57092;Laerm;42968;52.094;4.328;2023-08-08T03:32:19;59.55;41.61;74.13;;
57092;Laerm;42968;52.094;4.328;2023-08-08T03:34:44;61.52;41.75;75.86;;
57092;Laerm;42968;52.094;4.328;2023-08-08T03:37:10;60.80;42.74;75.41;;
57092;Laerm;42968;52.094;4.328;2023-08-08T03:39:35;65.19;42.47;81.19;;
57092;Laerm;42968;52.094;4.328;2023-08-08T03:42:00;60.54;41.82;72.22;;
57092;Laerm;42968;52.094;4.328;2023-08-08T03:44:25;59.39;40.33;73.99;;
57092;Laerm;42968;52.094;4.328;2023-08-08T03:46:51;62.41;37.88;79.61;;
57092;Laerm;42968;52.094;4.328;2023-08-08T03:49:16;65.16;41.82;78.35;;
57092;Laerm;42968;52.094;4.328;2023-08-08T03:51:41;62.83;45.04;74.57;;
57092;Laerm;42968;52.094;4.328;2023-08-08T03:54:06;62.22;40.62;77.94;;
57092;Laerm;42968;52.094;4.328;2023-08-08T03:56:32;64.64;45.27;77.27;;
57092;Laerm;42968;52.094;4.328;2023-08-08T03:58:57;64.63;41.11;82.27;;
57092;Laerm;42968;52.094;4.328;2023-08-08T04:01:22;60.50;42.03;78.48;;
57092;Laerm;42968;52.094;4.328;2023-08-08T04:03:48;54.84;41.30;68.36;;
57092;Laerm;42968;52.094;4.328;2023-08-08T04:06:13;62.21;41.30;76.36;;
57092;Laerm;42968;52.094;4.328;2023-08-08T04:08:38;62.78;41.96;76.46;;
57092;Laerm;42968;52.094;4.328;2023-08-08T04:11:03;60.98;43.90;72.02;;
57092;Laerm;42968;52.094;4.328;2023-08-08T04:13:28;63.90;43.34;79.09;;
57092;Laerm;42968;52.094;4.328;2023-08-08T04:15:54;64.50;44.62;76.65;;
57092;Laerm;42968;52.094;4.328;2023-08-08T04:18:20;63.33;43.58;76.56;;
57092;Laerm;42968;52.094;4.328;2023-08-08T04:20:45;66.39;43.58;77.91;;
57092;Laerm;42968;52.094;4.328;2023-08-08T04:23:12;65.61;47.16;78.83;;
57092;Laerm;42968;52.094;4.328;2023-08-08T04:25:37;66.79;45.07;79.52;;
57092;Laerm;42968;52.094;4.328;2023-08-08T04:28:02;62.08;43.14;74.99;;
57092;Laerm;42968;52.094;4.328;2023-08-08T04:30:28;66.04;45.14;80.64;;
57092;Laerm;42968;52.094;4.328;2023-08-08T04:32:53;67.56;49.65;78.29;;
57092;Laerm;42968;52.094;4.328;2023-08-08T04:35:19;66.19;45.11;78.80;;
57092;Laerm;42968;52.094;4.328;2023-08-08T04:37:44;66.26;43.99;82.02;;
57092;Laerm;42968;52.094;4.328;2023-08-08T04:40:09;64.55;44.80;75.57;;
57092;Laerm;42968;52.094;4.328;2023-08-08T04:42:35;68.14;47.59;78.19;;
57092;Laerm;42968;52.094;4.328;2023-08-08T04:45:00;66.73;47.76;77.86;;
57092;Laerm;42968;52.094;4.328;2023-08-08T04:47:25;66.88;47.34;77.51;;
57092;Laerm;42968;52.094;4.328;2023-08-08T04:49:50;68.89;45.94;81.35;;
57092;Laerm;42968;52.094;4.328;2023-08-08T04:52:16;67.37;51.67;77.68;;
57092;Laerm;42968;52.094;4.328;2023-08-08T04:54:41;69.39;51.08;81.74;;
57092;Laerm;42968;52.094;4.328;2023-08-08T04:57:06;66.99;51.60;75.48;;
57092;Laerm;42968;52.094;4.328;2023-08-08T04:59:31;65.54;50.30;76.31;;
57092;Laerm;42968;52.094;4.328;2023-08-08T05:01:57;68.15;52.16;77.59;;
57092;Laerm;42968;52.094;4.328;2023-08-08T05:04:22;67.82;45.83;82.85;;
57092;Laerm;42968;52.094;4.328;2023-08-08T05:06:48;69.14;51.93;82.67;;
57092;Laerm;42968;52.094;4.328;2023-08-08T05:09:13;67.49;48.57;74.71;;
57092;Laerm;42968;52.094;4.328;2023-08-08T05:11:38;67.65;46.02;79.92;;
57092;Laerm;42968;52.094;4.328;2023-08-08T05:14:03;66.82;46.23;77.36;;
57092;Laerm;42968;52.094;4.328;2023-08-08T05:16:29;69.48;51.47;81.18;;
57092;Laerm;42968;52.094;4.328;2023-08-08T05:18:54;66.48;46.71;77.68;;
57092;Laerm;42968;52.094;4.328;2023-08-08T05:21:19;66.69;43.54;76.40;;
57092;Laerm;42968;52.094;4.328;2023-08-08T05:23:45;68.24;49.84;79.21;;
57092;Laerm;42968;52.094;4.328;2023-08-08T05:26:10;68.05;47.32;79.77;;
57092;Laerm;42968;52.094;4.328;2023-08-08T05:28:35;66.87;45.60;76.29;;
57092;Laerm;42968;52.094;4.328;2023-08-08T05:31:01;66.13;52.13;74.88;;
57092;Laerm;42968;52.094;4.328;2023-08-08T05:33:26;68.76;49.33;77.60;;
57092;Laerm;42968;52.094;4.328;2023-08-08T05:35:51;65.24;47.32;75.67;;
57092;Laerm;42968;52.094;4.328;2023-08-08T05:38:16;67.81;52.16;79.07;;
57092;Laerm;42968;52.094;4.328;2023-08-08T05:40:42;67.77;50.36;76.38;;
57092;Laerm;42968;52.094;4.328;2023-08-08T05:43:07;69.16;49.70;82.90;;
57092;Laerm;42968;52.094;4.328;2023-08-08T05:45:33;68.00;53.69;78.91;;
57092;Laerm;42968;52.094;4.328;2023-08-08T05:47:58;68.16;48.67;76.96;;
57092;Laerm;42968;52.094;4.328;2023-08-08T05:50:26;68.36;53.41;77.44;;
57092;Laerm;42968;52.094;4.328;2023-08-08T05:52:51;67.51;53.50;75.66;;
57092;Laerm;42968;52.094;4.328;2023-08-08T05:55:16;68.24;46.55;78.71;;
57092;Laerm;42968;52.094;4.328;2023-08-08T05:57:42;69.56;54.04;81.07;;
57092;Laerm;42968;52.094;4.328;2023-08-08T06:00:07;67.79;51.93;75.36;;
57092;Laerm;42968;52.094;4.328;2023-08-08T06:02:35;68.57;54.05;76.84;;
57092;Laerm;42968;52.094;4.328;2023-08-08T06:05:01;69.81;46.97;77.73;;
57092;Laerm;42968;52.094;4.328;2023-08-08T06:07:26;67.69;47.84;76.82;;
57092;Laerm;42968;52.094;4.328;2023-08-08T06:09:51;67.45;52.82;74.97;;
57092;Laerm;42968;52.094;4.328;2023-08-08T06:12:16;66.85;49.27;79.24;;
57092;Laerm;42968;52.094;4.328;2023-08-08T06:14:42;69.63;56.79;80.26;;
57092;Laerm;42968;52.094;4.328;2023-08-08T06:17:07;69.03;50.91;77.10;;
57092;Laerm;42968;52.094;4.328;2023-08-08T06:19:32;69.90;51.40;80.10;;
57092;Laerm;42968;52.094;4.328;2023-08-08T06:21:58;68.19;50.23;76.22;;
57092;Laerm;42968;52.094;4.328;2023-08-08T06:24:23;68.28;47.54;76.26;;
57092;Laerm;42968;52.094;4.328;2023-08-08T06:26:48;69.92;54.67;78.50;;
57092;Laerm;42968;52.094;4.328;2023-08-08T06:29:13;68.66;52.70;81.32;;
57092;Laerm;42968;52.094;4.328;2023-08-08T06:31:39;69.46;55.27;75.95;;
57092;Laerm;42968;52.094;4.328;2023-08-08T06:34:04;68.93;52.71;80.58;;
57092;Laerm;42968;52.094;4.328;2023-08-08T06:36:30;67.18;49.47;81.49;;
57092;Laerm;42968;52.094;4.328;2023-08-08T06:38:56;69.84;53.72;81.89;;
57092;Laerm;42968;52.094;4.328;2023-08-08T06:41:21;68.11;54.94;75.93;;
57092;Laerm;42968;52.094;4.328;2023-08-08T06:43:46;68.66;50.78;76.83;;
57092;Laerm;42968;52.094;4.328;2023-08-08T06:46:11;68.99;54.61;79.96;;
57092;Laerm;42968;52.094;4.328;2023-08-08T06:48:37;69.23;49.75;78.12;;
57092;Laerm;42968;52.094;4.328;2023-08-08T06:51:02;68.68;55.15;76.34;;
57092;Laerm;42968;52.094;4.328;2023-08-08T06:53:27;67.54;50.94;76.79;;
57092;Laerm;42968;52.094;4.328;2023-08-08T06:55:52;70.25;51.78;80.21;;
57092;Laerm;42968;52.094;4.328;2023-08-08T06:58:18;68.66;52.06;76.07;;
57092;Laerm;42968;52.094;4.328;2023-08-08T07:00:43;66.52;45.94;78.62;;
57092;Laerm;42968;52.094;4.328;2023-08-08T07:03:08;68.40;51.48;75.75;;
57092;Laerm;42968;52.094;4.328;2023-08-08T07:05:33;68.28;50.65;77.73;;
57092;Laerm;42968;52.094;4.328;2023-08-08T07:07:59;68.60;53.47;77.49;;
57092;Laerm;42968;52.094;4.328;2023-08-08T07:10:24;69.11;54.88;78.96;;
57092;Laerm;42968;52.094;4.328;2023-08-08T07:12:49;67.55;48.20;75.07;;
57092;Laerm;42968;52.094;4.328;2023-08-08T07:15:15;69.93;53.42;81.57;;
57092;Laerm;42968;52.094;4.328;2023-08-08T07:17:40;69.71;49.56;79.43;;
57092;Laerm;42968;52.094;4.328;2023-08-08T07:20:05;67.35;49.66;78.37;;
57092;Laerm;42968;52.094;4.328;2023-08-08T07:22:31;66.95;48.36;75.31;;
57092;Laerm;42968;52.094;4.328;2023-08-08T07:24:57;66.05;46.30;82.53;;
57092;Laerm;42968;52.094;4.328;2023-08-08T07:27:22;70.38;52.06;78.42;;
57092;Laerm;42968;52.094;4.328;2023-08-08T07:29:48;65.09;45.11;74.23;;
57092;Laerm;42968;52.094;4.328;2023-08-08T07:32:13;69.99;48.92;78.94;;
57092;Laerm;42968;52.094;4.328;2023-08-08T07:34:38;68.47;54.17;78.05;;
57092;Laerm;42968;52.094;4.328;2023-08-08T07:37:03;70.02;51.89;81.19;;
57092;Laerm;42968;52.094;4.328;2023-08-08T07:39:29;68.57;58.21;74.07;;
57092;Laerm;42968;52.094;4.328;2023-08-08T07:41:55;66.36;48.42;76.74;;
57092;Laerm;42968;52.094;4.328;2023-08-08T07:44:20;70.26;55.56;81.00;;
57092;Laerm;42968;52.094;4.328;2023-08-08T07:46:46;68.17;51.53;79.13;;
57092;Laerm;42968;52.094;4.328;2023-08-08T07:49:11;68.23;46.93;79.01;;
57092;Laerm;42968;52.094;4.328;2023-08-08T07:51:36;69.06;52.51;80.59;;
57092;Laerm;42968;52.094;4.328;2023-08-08T07:54:02;68.46;55.72;77.90;;
57092;Laerm;42968;52.094;4.328;2023-08-08T07:56:27;68.92;48.29;82.30;;
57092;Laerm;42968;52.094;4.328;2023-08-08T07:58:52;67.67;49.24;76.62;;
57092;Laerm;42968;52.094;4.328;2023-08-08T08:01:18;67.23;49.23;79.62;;
57092;Laerm;42968;52.094;4.328;2023-08-08T08:03:43;67.56;51.65;76.90;;
57092;Laerm;42968;52.094;4.328;2023-08-08T08:06:09;66.32;52.67;79.30;;
57092;Laerm;42968;52.094;4.328;2023-08-08T08:08:34;67.04;51.78;76.05;;
57092;Laerm;42968;52.094;4.328;2023-08-08T08:11:01;67.20;51.55;80.44;;
57092;Laerm;42968;52.094;4.328;2023-08-08T08:13:26;67.89;49.34;75.16;;
57092;Laerm;42968;52.094;4.328;2023-08-08T08:15:52;68.74;50.00;82.42;;
57092;Laerm;42968;52.094;4.328;2023-08-08T08:18:17;66.98;50.45;74.92;;
57092;Laerm;42968;52.094;4.328;2023-08-08T08:20:43;67.86;52.43;78.87;;
57092;Laerm;42968;52.094;4.328;2023-08-08T08:23:08;69.06;53.65;79.95;;
57092;Laerm;42968;52.094;4.328;2023-08-08T08:25:34;67.03;49.66;76.30;;
57092;Laerm;42968;52.094;4.328;2023-08-08T08:27:59;69.78;50.65;79.08;;
57092;Laerm;42968;52.094;4.328;2023-08-08T08:30:24;67.95;48.23;81.66;;
57092;Laerm;42968;52.094;4.328;2023-08-08T08:32:51;67.30;56.39;76.06;;
57092;Laerm;42968;52.094;4.328;2023-08-08T08:35:17;68.59;50.49;78.69;;
57092;Laerm;42968;52.094;4.328;2023-08-08T08:37:42;67.37;47.96;77.96;;
57092;Laerm;42968;52.094;4.328;2023-08-08T08:40:08;68.26;49.59;80.59;;
57092;Laerm;42968;52.094;4.328;2023-08-08T08:42:34;69.63;53.81;82.56;;
57092;Laerm;42968;52.094;4.328;2023-08-08T08:44:59;68.37;53.45;78.34;;
57092;Laerm;42968;52.094;4.328;2023-08-08T08:47:26;66.55;49.47;75.13;;
57092;Laerm;42968;52.094;4.328;2023-08-08T08:49:54;68.44;54.04;75.81;;
57092;Laerm;42968;52.094;4.328;2023-08-08T08:52:20;68.68;49.47;82.14;;
57092;Laerm;42968;52.094;4.328;2023-08-08T08:54:45;67.61;50.60;79.66;;
57092;Laerm;42968;52.094;4.328;2023-08-08T08:57:11;68.41;50.63;78.50;;
57092;Laerm;42968;52.094;4.328;2023-08-08T08:59:37;68.97;53.81;78.56;;
57092;Laerm;42968;52.094;4.328;2023-08-08T09:02:02;69.14;58.10;77.16;;
57092;Laerm;42968;52.094;4.328;2023-08-08T09:04:28;67.65;56.58;81.16;;
57092;Laerm;42968;52.094;4.328;2023-08-08T09:06:53;72.81;53.05;86.76;;
57092;Laerm;42968;52.094;4.328;2023-08-08T09:09:19;67.22;51.38;75.27;;
57092;Laerm;42968;52.094;4.328;2023-08-08T09:11:50;66.53;49.91;74.63;;
57092;Laerm;42968;52.094;4.328;2023-08-08T09:16:42;69.56;52.86;81.38;;
57092;Laerm;42968;52.094;4.328;2023-08-08T09:19:07;67.06;55.73;74.55;;
57092;Laerm;42968;52.094;4.328;2023-08-08T09:21:32;68.08;50.49;79.23;;
57092;Laerm;42968;52.094;4.328;2023-08-08T09:23:58;68.28;50.11;83.00;;
57092;Laerm;42968;52.094;4.328;2023-08-08T09:26:23;67.71;52.60;77.34;;
57092;Laerm;42968;52.094;4.328;2023-08-08T09:28:48;69.00;50.68;80.94;;
57092;Laerm;42968;52.094;4.328;2023-08-08T09:31:15;68.36;51.07;83.26;;
57092;Laerm;42968;52.094;4.328;2023-08-08T09:33:41;68.71;51.67;78.02;;
57092;Laerm;42968;52.094;4.328;2023-08-08T09:36:06;68.93;49.62;77.10;;
57092;Laerm;42968;52.094;4.328;2023-08-08T09:38:32;66.31;49.23;75.60;;
57092;Laerm;42968;52.094;4.328;2023-08-08T09:40:57;68.16;50.09;78.46;;
57092;Laerm;42968;52.094;4.328;2023-08-08T09:43:24;69.09;49.34;80.47;;
57092;Laerm;42968;52.094;4.328;2023-08-08T09:45:49;70.15;48.96;83.84;;
57092;Laerm;42968;52.094;4.328;2023-08-08T09:48:14;68.20;54.44;78.24;;
57092;Laerm;42968;52.094;4.328;2023-08-08T09:50:41;67.72;49.53;85.29;;
57092;Laerm;42968;52.094;4.328;2023-08-08T09:53:06;67.99;47.95;77.11;;
57092;Laerm;42968;52.094;4.328;2023-08-08T09:55:31;68.33;53.28;78.82;;
57092;Laerm;42968;52.094;4.328;2023-08-08T09:57:57;68.43;51.38;80.12;;
57092;Laerm;42968;52.094;4.328;2023-08-08T10:00:23;68.00;52.94;76.20;;
57092;Laerm;42968;52.094;4.328;2023-08-08T10:02:52;68.79;49.02;82.23;;
57092;Laerm;42968;52.094;4.328;2023-08-08T10:05:18;65.51;48.61;75.27;;
57092;Laerm;42968;52.094;4.328;2023-08-08T10:07:44;69.24;50.94;86.28;;
57092;Laerm;42968;52.094;4.328;2023-08-08T10:10:10;69.64;49.44;77.19;;
57092;Laerm;42968;52.094;4.328;2023-08-08T10:12:39;65.59;49.36;79.02;;
57092;Laerm;42968;52.094;4.328;2023-08-08T10:15:10;67.14;50.73;78.33;;
57092;Laerm;42968;52.094;4.328;2023-08-08T10:17:39;67.84;46.28;81.01;;
57092;Laerm;42968;52.094;4.328;2023-08-08T10:20:05;67.70;49.44;77.57;;
57092;Laerm;42968;52.094;4.328;2023-08-08T10:22:38;68.18;50.63;75.08;;
57092;Laerm;42968;52.094;4.328;2023-08-08T10:25:06;67.43;54.67;76.58;;
57092;Laerm;42968;52.094;4.328;2023-08-08T10:27:32;67.23;49.83;77.34;;
57092;Laerm;42968;52.094;4.328;2023-08-08T10:30:08;67.95;51.09;76.96;;
57092;Laerm;42968;52.094;4.328;2023-08-08T10:32:42;67.74;47.83;78.53;;
57092;Laerm;42968;52.094;4.328;2023-08-08T10:35:07;67.52;46.91;78.70;;
57092;Laerm;42968;52.094;4.328;2023-08-08T10:37:34;67.29;49.75;75.96;;
57092;Laerm;42968;52.094;4.328;2023-08-08T10:40:00;67.06;47.76;75.96;;
57092;Laerm;42968;52.094;4.328;2023-08-08T10:42:26;67.09;48.00;80.47;;
57092;Laerm;42968;52.094;4.328;2023-08-08T10:45:01;67.95;48.42;76.57;;
57092;Laerm;42968;52.094;4.328;2023-08-08T10:47:31;68.17;47.00;77.82;;
57092;Laerm;42968;52.094;4.328;2023-08-08T10:49:57;67.69;49.29;76.22;;
57092;Laerm;42968;52.094;4.328;2023-08-08T10:52:22;67.97;49.94;77.21;;
57092;Laerm;42968;52.094;4.328;2023-08-08T10:54:51;68.07;50.99;83.26;;
57092;Laerm;42968;52.094;4.328;2023-08-08T10:57:17;68.45;50.68;79.11;;
57092;Laerm;42968;52.094;4.328;2023-08-08T10:59:44;66.64;50.97;75.19;;
57092;Laerm;42968;52.094;4.328;2023-08-08T11:02:09;66.33;48.13;77.54;;
57092;Laerm;42968;52.094;4.328;2023-08-08T11:04:35;68.54;53.66;82.80;;
57092;Laerm;42968;52.094;4.328;2023-08-08T11:07:01;68.52;51.70;77.11;;
57092;Laerm;42968;52.094;4.328;2023-08-08T11:09:26;68.69;50.92;78.17;;
57092;Laerm;42968;52.094;4.328;2023-08-08T11:11:52;66.59;49.60;80.24;;
57092;Laerm;42968;52.094;4.328;2023-08-08T11:14:20;69.76;51.21;80.31;;
57092;Laerm;42968;52.094;4.328;2023-08-08T11:16:47;67.96;50.27;79.30;;
57092;Laerm;42968;52.094;4.328;2023-08-08T11:19:13;69.17;53.41;81.75;;
57092;Laerm;42968;52.094;4.328;2023-08-08T11:21:40;68.64;52.22;78.31;;
57092;Laerm;42968;52.094;4.328;2023-08-08T11:24:06;67.42;51.22;81.21;;
57092;Laerm;42968;52.094;4.328;2023-08-08T11:26:32;68.08;50.33;79.70;;
57092;Laerm;42968;52.094;4.328;2023-08-08T11:29:01;67.08;47.08;75.53;;
57092;Laerm;42968;52.094;4.328;2023-08-08T11:31:26;66.85;47.79;78.91;;
57092;Laerm;42968;52.094;4.328;2023-08-08T11:33:53;68.41;52.86;77.74;;
57092;Laerm;42968;52.094;4.328;2023-08-08T11:36:19;68.09;53.71;78.40;;
57092;Laerm;42968;52.094;4.328;2023-08-08T11:38:44;69.14;49.15;82.85;;
57092;Laerm;42968;52.094;4.328;2023-08-08T11:41:10;69.17;51.27;80.42;;
57092;Laerm;42968;52.094;4.328;2023-08-08T11:43:37;68.48;50.20;77.10;;
57092;Laerm;42968;52.094;4.328;2023-08-08T11:46:03;67.55;56.61;74.85;;
57092;Laerm;42968;52.094;4.328;2023-08-08T11:48:28;68.48;56.72;76.61;;
57092;Laerm;42968;52.094;4.328;2023-08-08T11:50:53;79.42;51.24;101.85;;
57092;Laerm;42968;52.094;4.328;2023-08-08T11:53:19;66.51;53.24;80.95;;
57092;Laerm;42968;52.094;4.328;2023-08-08T11:55:44;68.02;50.60;75.95;;
57092;Laerm;42968;52.094;4.328;2023-08-08T11:58:13;68.56;50.29;81.40;;
57092;Laerm;42968;52.094;4.328;2023-08-08T12:00:39;69.23;52.41;84.34;;
57092;Laerm;42968;52.094;4.328;2023-08-08T12:03:05;68.04;52.78;78.23;;
57092;Laerm;42968;52.094;4.328;2023-08-08T12:05:36;68.68;51.03;81.00;;
57092;Laerm;42968;52.094;4.328;2023-08-08T12:08:02;70.34;53.53;83.54;;
57092;Laerm;42968;52.094;4.328;2023-08-08T12:10:29;68.32;52.15;76.95;;
57092;Laerm;42968;52.094;4.328;2023-08-08T12:12:55;69.97;50.05;88.63;;
57092;Laerm;42968;52.094;4.328;2023-08-08T12:15:22;68.38;50.08;75.55;;
57092;Laerm;42968;52.094;4.328;2023-08-08T12:17:48;68.46;49.79;78.29;;
57092;Laerm;42968;52.094;4.328;2023-08-08T12:20:14;65.93;50.29;73.45;;
57092;Laerm;42968;52.094;4.328;2023-08-08T12:22:40;67.96;52.54;79.27;;
57092;Laerm;42968;52.094;4.328;2023-08-08T12:25:05;67.32;50.47;75.51;;
57092;Laerm;42968;52.094;4.328;2023-08-08T12:27:31;69.37;56.20;81.47;;
57092;Laerm;42968;52.094;4.328;2023-08-08T12:29:56;68.18;46.73;84.17;;
57092;Laerm;42968;52.094;4.328;2023-08-08T12:32:21;68.93;51.57;80.84;;
57092;Laerm;42968;52.094;4.328;2023-08-08T12:34:49;68.94;50.89;77.56;;
57092;Laerm;42968;52.094;4.328;2023-08-08T12:37:15;68.14;53.44;76.82;;
57092;Laerm;42968;52.094;4.328;2023-08-08T12:39:40;67.96;51.13;75.98;;
57092;Laerm;42968;52.094;4.328;2023-08-08T12:42:05;67.86;47.91;78.10;;
57092;Laerm;42968;52.094;4.328;2023-08-08T12:44:31;68.82;53.71;80.22;;
57092;Laerm;42968;52.094;4.328;2023-08-08T12:46:56;68.38;53.75;78.41;;
57092;Laerm;42968;52.094;4.328;2023-08-08T12:49:21;67.51;50.02;77.63;;
57092;Laerm;42968;52.094;4.328;2023-08-08T12:51:46;77.14;54.74;97.41;;
57092;Laerm;42968;52.094;4.328;2023-08-08T12:54:12;67.62;52.06;76.70;;
57092;Laerm;42968;52.094;4.328;2023-08-08T12:56:37;69.80;54.77;83.34;;
57092;Laerm;42968;52.094;4.328;2023-08-08T12:59:03;82.29;51.89;106.23;;
57092;Laerm;42968;52.094;4.328;2023-08-08T13:01:28;67.66;50.83;75.46;;
57092;Laerm;42968;52.094;4.328;2023-08-08T13:03:53;66.91;50.83;75.01;;
57092;Laerm;42968;52.094;4.328;2023-08-08T13:06:18;67.60;50.02;82.46;;
57092;Laerm;42968;52.094;4.328;2023-08-08T13:08:44;67.72;53.96;76.15;;
57092;Laerm;42968;52.094;4.328;2023-08-08T13:11:09;69.25;49.16;77.58;;
57092;Laerm;42968;52.094;4.328;2023-08-08T13:13:34;67.44;49.57;77.65;;
57092;Laerm;42968;52.094;4.328;2023-08-08T13:16:00;68.97;51.03;78.34;;
57092;Laerm;42968;52.094;4.328;2023-08-08T13:18:25;69.35;49.11;81.24;;
57092;Laerm;42968;52.094;4.328;2023-08-08T13:20:51;67.14;52.13;75.46;;
57092;Laerm;42968;52.094;4.328;2023-08-08T13:23:17;69.03;52.69;80.53;;
57092;Laerm;42968;52.094;4.328;2023-08-08T13:25:42;69.99;54.79;79.14;;
57092;Laerm;42968;52.094;4.328;2023-08-08T13:28:07;68.77;57.64;82.29;;
57092;Laerm;42968;52.094;4.328;2023-08-08T13:30:33;68.44;55.66;80.93;;
57092;Laerm;42968;52.094;4.328;2023-08-08T13:32:59;68.59;55.14;79.58;;
57092;Laerm;42968;52.094;4.328;2023-08-08T13:35:24;68.73;50.48;77.61;;
57092;Laerm;42968;52.094;4.328;2023-08-08T13:37:49;73.42;52.19;93.20;;
57092;Laerm;42968;52.094;4.328;2023-08-08T13:40:17;68.25;51.72;76.39;;